Time;durP1;ratioP1;P1;durP2;ratioP2;P2;SDS_P1;SDS_P2;PMS_P1;PMS_P2;Temp;Humidity;BMP_temperature;BMP_pressure;BME280_temperature;BME280_humidity;BME280_pressure;Samples;Min_cycle;Max_cycle;Signal;HPM_P1;HPM_P2
2024/03/14 00:01:08;;;;;;;16.42;10.63;;;;;;;;;;10140655;28;20492;-75
2024/03/14 00:06:03;;;;;;;14.65;11.18;;;;;;;;;;10134605;28;20786;-75
2024/03/14 00:10:57;;;;;;;13.95;9.93;;;;;;;;;;10134753;28;20045;-76
2024/03/14 00:15:51;;;;;;;14.65;10.95;;;;;;;;;;10148388;28;20424;-75
2024/03/14 00:20:45;;;;;;;12.45;10.35;;;;;;;;;;10145682;28;20135;-75
2024/03/14 00:25:40;;;;;;;15.75;10.95;;;;;;;;;;10112883;28;20551;-76
2024/03/14 00:30:34;;;;;;;15.18;11.02;;;;;;;;;;10105705;28;20099;-76
2024/03/14 00:35:29;;;;;;;14.57;11.52;;;;;;;;;;10106388;28;20497;-76
2024/03/14 00:40:22;;;;;;;14.30;10.55;;;;;;;;;;10104187;28;20091;-75
2024/03/14 00:45:19;;;;;;;16.42;9.13;;;;;;;;;;10098290;28;20095;-75
2024/03/14 00:50:13;;;;;;;20.30;9.32;;;;;;;;;;10096044;28;20063;-75
2024/03/14 00:55:09;;;;;;;14.93;9.27;;;;;;;;;;10099046;28;20052;-75
2024/03/14 01:00:11;;;;;;;11.20;7.63;;;;;;;;;;10107191;28;20118;-74
2024/03/14 01:05:08;;;;;;;13.15;7.53;;;;;;;;;;10108292;28;20452;-75
2024/03/14 01:10:05;;;;;;;11.27;6.72;;;;;;;;;;10103105;28;20139;-75
2024/03/14 01:14:58;;;;;;;8.27;5.40;;;;;;;;;;10102959;28;20056;-75
2024/03/14 01:19:53;;;;;;;7.55;5.30;;;;;;;;;;10105251;28;20108;-74
2024/03/14 01:24:48;;;;;;;6.18;5.18;;;;;;;;;;10135749;28;20048;-75
2024/03/14 01:29:42;;;;;;;6.00;4.18;;;;;;;;;;10132901;28;20052;-75
2024/03/14 01:34:36;;;;;;;8.10;5.78;;;;;;;;;;10137033;28;20102;-74
2024/03/14 01:39:31;;;;;;;9.05;5.47;;;;;;;;;;10141095;28;20059;-75
2024/03/14 01:44:52;;;;;;;8.13;7.05;;;;;;;;;;10142754;28;20455;-75
2024/03/14 01:49:46;;;;;;;10.52;6.47;;;;;;;;;;10141896;28;20063;-75
2024/03/14 01:54:40;;;;;;;9.70;6.68;;;;;;;;;;10143002;28;20079;-76
2024/03/14 01:59:34;;;;;;;11.75;6.85;;;;;;;;;;10142521;28;20397;-76
2024/03/14 02:04:49;;;;;;;8.63;6.13;;;;;;;;;;10140086;28;20535;-75
2024/03/14 02:09:46;;;;;;;10.40;6.65;;;;;;;;;;10140035;28;20040;-76
2024/03/14 02:14:40;;;;;;;9.25;6.70;;;;;;;;;;10119483;28;20106;-76
2024/03/14 02:19:39;;;;;;;9.82;6.63;;;;;;;;;;10138691;28;20139;-76
2024/03/14 02:24:34;;;;;;;7.68;4.72;;;;;;;;;;10141643;28;20061;-75
2024/03/14 02:29:27;;;;;;;6.43;4.97;;;;;;;;;;10141776;28;20602;-76
2024/03/14 02:34:21;;;;;;;8.43;5.32;;;;;;;;;;10138262;28;20063;-76
2024/03/14 02:39:16;;;;;;;5.45;4.90;;;;;;;;;;10139527;28;20082;-75
2024/03/14 02:44:21;;;;;;;6.80;3.63;;;;;;;;;;10141387;28;20063;-75
2024/03/14 02:49:20;;;;;;;5.05;4.32;;;;;;;;;;10136087;28;20048;-76
2024/03/14 02:54:15;;;;;;;5.47;3.90;;;;;;;;;;10138823;28;20053;-75
2024/03/14 02:59:21;;;;;;;6.80;3.75;;;;;;;;;;10133385;28;20460;-75
2024/03/14 03:04:17;;;;;;;11.88;4.35;;;;;;;;;;10145351;28;20143;-75
2024/03/14 03:09:14;;;;;;;8.95;4.72;;;;;;;;;;10148616;28;20057;-76
2024/03/14 03:14:08;;;;;;;7.28;5.20;;;;;;;;;;10147549;28;20580;-75
2024/03/14 03:19:02;;;;;;;6.88;4.10;;;;;;;;;;10146524;28;20102;-76
2024/03/14 03:23:56;;;;;;;6.53;4.80;;;;;;;;;;10148258;28;20064;-76
2024/03/14 03:28:50;;;;;;;7.80;4.97;;;;;;;;;;10144192;28;20048;-76
2024/03/14 03:33:44;;;;;;;8.82;5.93;;;;;;;;;;10146201;28;20057;-75
2024/03/14 03:38:40;;;;;;;6.20;5.40;;;;;;;;;;10142366;28;20147;-76
2024/03/14 03:43:33;;;;;;;7.72;6.32;;;;;;;;;;10147962;28;20416;-76
2024/03/14 03:48:26;;;;;;;8.40;6.82;;;;;;;;;;10147723;28;20102;-75
2024/03/14 03:53:21;;;;;;;11.48;7.25;;;;;;;;;;10147787;28;20492;-76
2024/03/14 03:58:16;;;;;;;8.88;6.72;;;;;;;;;;10147119;28;20100;-76
2024/03/14 04:03:15;;;;;;;9.35;6.25;;;;;;;;;;10146456;28;20504;-77
2024/03/14 04:08:09;;;;;;;11.00;8.07;;;;;;;;;;10146189;28;20613;-76
2024/03/14 04:13:11;;;;;;;10.27;7.88;;;;;;;;;;10142999;28;20053;-76
2024/03/14 04:18:06;;;;;;;14.82;8.63;;;;;;;;;;10141985;28;20090;-74
2024/03/14 04:23:00;;;;;;;11.85;7.80;;;;;;;;;;10144610;28;20044;-74
2024/03/14 04:27:54;;;;;;;11.30;7.55;;;;;;;;;;10141672;28;20049;-74
2024/03/14 04:32:48;;;;;;;11.45;8.45;;;;;;;;;;10143320;28;20053;-75
2024/03/14 04:37:47;;;;;;;13.27;8.90;;;;;;;;;;10144828;28;20048;-74
2024/03/14 04:42:41;;;;;;;9.60;7.88;;;;;;;;;;10129237;28;20075;-74
2024/03/14 04:47:35;;;;;;;9.98;7.88;;;;;;;;;;10139908;28;20056;-76
2024/03/14 04:52:29;;;;;;;11.88;7.00;;;;;;;;;;10143622;28;20139;-75
2024/03/14 04:57:27;;;;;;;9.90;6.47;;;;;;;;;;10141399;28;20074;-76
2024/03/14 05:02:22;;;;;;;9.85;6.00;;;;;;;;;;10135338;28;20416;-75
2024/03/14 05:07:16;;;;;;;11.18;8.23;;;;;;;;;;10144810;28;20080;-76
2024/03/14 05:12:10;;;;;;;11.32;7.65;;;;;;;;;;10143765;28;20088;-77
2024/03/14 05:17:04;;;;;;;11.25;7.93;;;;;;;;;;10144489;28;20049;-76
2024/03/14 05:21:58;;;;;;;15.13;8.93;;;;;;;;;;10144074;28;20495;-76
2024/03/14 05:26:52;;;;;;;10.93;8.25;;;;;;;;;;10143235;28;20385;-76
2024/03/14 05:31:47;;;;;;;13.10;9.10;;;;;;;;;;10143682;28;20097;-76
2024/03/14 05:36:41;;;;;;;13.80;9.93;;;;;;;;;;10142847;28;20098;-76
2024/03/14 05:41:34;;;;;;;15.70;10.18;;;;;;;;;;10142155;28;20054;-77
2024/03/14 05:46:28;;;;;;;15.25;9.50;;;;;;;;;;10142885;28;20053;-74
2024/03/14 05:51:23;;;;;;;13.23;10.25;;;;;;;;;;10134880;28;20053;-77
2024/03/14 05:56:18;;;;;;;20.13;12.27;;;;;;;;;;10134010;28;20055;-76
2024/03/14 06:01:13;;;;;;;17.58;11.98;;;;;;;;;;10143349;28;20091;-75
2024/03/14 06:06:08;;;;;;;18.48;14.27;;;;;;;;;;10142395;28;20056;-75
2024/03/14 06:11:02;;;;;;;16.27;11.82;;;;;;;;;;10140359;28;20052;-75
2024/03/14 06:15:56;;;;;;;19.45;11.90;;;;;;;;;;10141847;28;20511;-74
2024/03/14 06:20:54;;;;;;;18.42;12.02;;;;;;;;;;10139955;28;20044;-73
2024/03/14 06:25:50;;;;;;;21.75;13.27;;;;;;;;;;10142749;28;20056;-74
2024/03/14 06:30:47;;;;;;;;;;;;;;;;;;10144011;28;20084;-74
2024/03/14 06:35:41;;;;;;;22.83;15.60;;;;;;;;;;10144767;28;19924;-75
2024/03/14 06:40:37;;;;;;;19.38;12.85;;;;;;;;;;10145523;28;20091;-77
2024/03/14 06:45:31;;;;;;;21.45;13.27;;;;;;;;;;10111493;28;20079;-75
2024/03/14 06:50:25;;;;;;;16.17;12.18;;;;;;;;;;10138152;28;20516;-74
2024/03/14 06:55:21;;;;;;;20.90;14.35;;;;;;;;;;10142325;28;20066;-74
2024/03/14 07:00:22;;;;;;;24.13;18.25;;;;;;;;;;10128608;28;20052;-73
2024/03/14 07:05:16;;;;;;;24.17;17.35;;;;;;;;;;10139969;28;20106;-74
2024/03/14 07:10:13;;;;;;;27.45;19.73;;;;;;;;;;10140050;28;20131;-74
2024/03/14 07:15:10;;;;;;;29.40;22.25;;;;;;;;;;10126337;28;20083;-75
2024/03/14 07:20:09;;;;;;;35.20;19.08;;;;;;;;;;10129074;28;20053;-77
2024/03/14 07:25:05;;;;;;;33.10;17.63;;;;;;;;;;10126032;28;20061;-76
2024/03/14 07:30:13;;;;;;;31.48;18.15;;;;;;;;;;10142994;28;20055;-76
2024/03/14 07:35:09;;;;;;;23.42;19.13;;;;;;;;;;10131797;28;20110;-76
2024/03/14 07:40:11;;;;;;;25.83;17.77;;;;;;;;;;10135280;28;20076;-75
2024/03/14 07:45:25;;;;;;;24.40;17.40;;;;;;;;;;10135835;28;20076;-76
2024/03/14 07:50:23;;;;;;;22.20;17.02;;;;;;;;;;10140847;28;20593;-76
2024/03/14 07:55:17;;;;;;;20.35;15.07;;;;;;;;;;10144069;28;20115;-77
2024/03/14 08:00:15;;;;;;;21.35;16.13;;;;;;;;;;10142124;28;20106;-75
2024/03/14 08:05:11;;;;;;;21.67;13.65;;;;;;;;;;10143446;28;20044;-76
2024/03/14 08:10:08;;;;;;;21.58;14.07;;;;;;;;;;10139750;28;20052;-76
2024/03/14 08:15:16;;;;;;;21.73;13.60;;;;;;;;;;10141450;28;20129;-77
2024/03/14 08:20:17;;;;;;;21.75;14.10;;;;;;;;;;10146356;28;20083;-77
2024/03/14 08:25:17;;;;;;;19.13;13.20;;;;;;;;;;10143613;28;20053;-77
2024/03/14 08:30:11;;;;;;;16.42;13.05;;;;;;;;;;10141942;28;20049;-75
2024/03/14 08:35:07;;;;;;;17.65;12.27;;;;;;;;;;10132899;28;20071;-76
2024/03/14 08:40:05;;;;;;;18.33;12.15;;;;;;;;;;10135118;28;20058;-76
2024/03/14 08:45:01;;;;;;;14.82;11.18;;;;;;;;;;10144198;28;20052;-76
2024/03/14 08:49:55;;;;;;;13.63;9.38;;;;;;;;;;10142308;28;20579;-76
2024/03/14 08:54:49;;;;;;;16.63;10.73;;;;;;;;;;10145259;28;20040;-76
2024/03/14 08:59:43;;;;;;;17.20;9.75;;;;;;;;;;10143496;28;20088;-76
2024/03/14 09:04:46;;;;;;;10.32;9.15;;;;;;;;;;10144950;28;20073;-76
2024/03/14 09:09:41;;;;;;;10.52;8.48;;;;;;;;;;10145539;28;20139;-76
2024/03/14 09:14:35;;;;;;;14.80;9.68;;;;;;;;;;10142822;28;20053;-76
2024/03/14 09:19:29;;;;;;;16.50;11.93;;;;;;;;;;10143543;28;20045;-76
2024/03/14 09:24:23;;;;;;;13.50;10.90;;;;;;;;;;10142545;28;20057;-76
2024/03/14 09:29:21;;;;;;;15.02;10.82;;;;;;;;;;10143078;28;20124;-75
2024/03/14 09:34:15;;;;;;;11.02;9.90;;;;;;;;;;10143970;28;20533;-77
2024/03/14 09:39:18;;;;;;;11.98;9.23;;;;;;;;;;10144145;28;20096;-77
2024/03/14 09:44:15;;;;;;;11.05;7.70;;;;;;;;;;10141187;28;20056;-76
2024/03/14 09:49:12;;;;;;;14.20;8.30;;;;;;;;;;10144526;28;20041;-77
2024/03/14 09:54:06;;;;;;;11.63;9.57;;;;;;;;;;10142127;28;20049;-76
2024/03/14 09:59:01;;;;;;;11.73;10.07;;;;;;;;;;10145911;28;20056;-77
2024/03/14 10:03:57;;;;;;;18.52;11.75;;;;;;;;;;10145685;28;20117;-75
2024/03/14 10:08:51;;;;;;;13.75;10.20;;;;;;;;;;10142462;28;20076;-76
2024/03/14 10:13:47;;;;;;;14.50;11.57;;;;;;;;;;10139860;28;20106;-76
2024/03/14 10:18:42;;;;;;;11.55;9.77;;;;;;;;;;10139158;28;20059;-76
2024/03/14 10:23:37;;;;;;;18.35;13.55;;;;;;;;;;10141930;28;20515;-76
2024/03/14 10:28:34;;;;;;;12.70;11.40;;;;;;;;;;10137584;28;20080;-76
2024/03/14 10:33:29;;;;;;;21.23;13.70;;;;;;;;;;10135164;28;20148;-76
2024/03/14 10:38:25;;;;;;;15.07;12.15;;;;;;;;;;10139937;28;20052;-76
2024/03/14 10:43:20;;;;;;;14.23;12.63;;;;;;;;;;10140874;28;20045;-76
2024/03/14 10:48:14;;;;;;;18.98;14.57;;;;;;;;;;10142136;28;20080;-75
2024/03/14 10:53:07;;;;;;;19.55;14.23;;;;;;;;;;10139938;28;20052;-77
2024/03/14 10:58:05;;;;;;;16.65;14.70;;;;;;;;;;10121946;28;20060;-77
2024/03/14 11:03:00;;;;;;;33.75;17.52;;;;;;;;;;10136739;28;20105;-76
2024/03/14 11:07:54;;;;;;;20.88;16.92;;;;;;;;;;10134925;28;20493;-76
2024/03/14 11:12:52;;;;;;;17.67;15.70;;;;;;;;;;10138233;28;20051;-76
2024/03/14 11:17:50;;;;;;;16.77;15.00;;;;;;;;;;10133545;28;20646;-76
2024/03/14 11:22:47;;;;;;;17.67;15.93;;;;;;;;;;10141037;28;20060;-76
2024/03/14 11:27:42;;;;;;;22.83;16.35;;;;;;;;;;10144940;28;20056;-76
2024/03/14 11:32:47;;;;;;;20.85;16.70;;;;;;;;;;10144800;28;20044;-76
2024/03/14 11:37:50;;;;;;;20.10;18.00;;;;;;;;;;10144574;28;20056;-76
2024/03/14 11:42:52;;;;;;;21.23;17.83;;;;;;;;;;10141057;28;20447;-76
2024/03/14 11:47:50;;;;;;;19.88;17.80;;;;;;;;;;10144472;28;20052;-76
2024/03/14 11:52:45;;;;;;;22.25;17.60;;;;;;;;;;10147135;28;20419;-75
2024/03/14 11:57:47;;;;;;;18.77;16.73;;;;;;;;;;10149319;28;20114;-75
2024/03/14 12:02:41;;;;;;;24.73;21.10;;;;;;;;;;10143396;28;20648;-78
2024/03/14 12:07:35;;;;;;;22.25;18.75;;;;;;;;;;10144023;28;20404;-76
2024/03/14 12:12:32;;;;;;;28.65;23.20;;;;;;;;;;10127114;28;20503;-76
2024/03/14 12:17:28;;;;;;;26.23;23.50;;;;;;;;;;10145965;28;20090;-75
2024/03/14 12:22:22;;;;;;;30.45;25.38;;;;;;;;;;10146313;28;20131;-74
2024/03/14 12:27:17;;;;;;;25.95;21.55;;;;;;;;;;10139813;28;20057;-75
2024/03/14 12:32:12;;;;;;;27.45;22.58;;;;;;;;;;10142398;28;20053;-75
2024/03/14 12:37:12;;;;;;;25.92;22.67;;;;;;;;;;10123496;28;20063;-76
2024/03/14 12:42:09;;;;;;;28.83;24.88;;;;;;;;;;10134086;28;20110;-76
2024/03/14 12:47:04;;;;;;;27.40;24.48;;;;;;;;;;10140104;28;20061;-76
2024/03/14 12:51:58;;;;;;;27.60;24.63;;;;;;;;;;10138733;28;20048;-75
2024/03/14 12:56:53;;;;;;;34.58;28.27;;;;;;;;;;10140399;28;20044;-76
2024/03/14 13:01:47;;;;;;;32.30;28.75;;;;;;;;;;10141565;28;20098;-77
2024/03/14 13:06:41;;;;;;;31.50;25.70;;;;;;;;;;10142268;28;20064;-75
2024/03/14 13:11:35;;;;;;;32.53;26.20;;;;;;;;;;10143560;28;20520;-75
2024/03/14 13:16:29;;;;;;;33.70;27.70;;;;;;;;;;10144367;28;20083;-75
2024/03/14 13:21:25;;;;;;;29.60;26.35;;;;;;;;;;10141028;28;20080;-74
2024/03/14 13:26:23;;;;;;;33.38;26.80;;;;;;;;;;10142865;28;20052;-74
2024/03/14 13:31:20;;;;;;;31.48;27.52;;;;;;;;;;10142306;28;20052;-73
2024/03/14 13:36:16;;;;;;;35.85;26.08;;;;;;;;;;10142455;28;20063;-73
2024/03/14 13:41:10;;;;;;;27.50;22.15;;;;;;;;;;10141495;28;20040;-74
2024/03/14 13:46:05;;;;;;;33.38;26.60;;;;;;;;;;10140335;28;20090;-75
2024/03/14 13:51:02;;;;;;;28.35;24.30;;;;;;;;;;10136992;28;20058;-75
2024/03/14 13:55:57;;;;;;;27.43;23.90;;;;;;;;;;10134066;28;20055;-75
2024/03/14 14:00:56;;;;;;;27.73;23.95;;;;;;;;;;10137074;28;20056;-74
2024/03/14 14:05:54;;;;;;;28.05;22.15;;;;;;;;;;10131257;28;20519;-75
2024/03/14 14:10:50;;;;;;;;;;;;;;;;;;10138570;28;20123;-75
2024/03/14 14:15:45;;;;;;;30.52;25.38;;;;;;;;;;10142458;28;19920;-75
2024/03/14 14:20:40;;;;;;;23.52;20.08;;;;;;;;;;10140142;28;20083;-75
2024/03/14 14:25:35;;;;;;;25.27;20.42;;;;;;;;;;10142403;28;20508;-75
2024/03/14 14:30:32;;;;;;;23.42;18.17;;;;;;;;;;10142235;28;20404;-74
2024/03/14 14:35:26;;;;;;;27.55;20.55;;;;;;;;;;10137194;28;20079;-75
2024/03/14 14:40:24;;;;;;;22.83;19.00;;;;;;;;;;10140726;28;20079;-75
2024/03/14 14:45:19;;;;;;;25.55;21.60;;;;;;;;;;10140342;28;20067;-74
2024/03/14 14:50:13;;;;;;;31.17;21.85;;;;;;;;;;10160046;28;20047;-75
2024/03/14 14:55:12;;;;;;;27.55;22.85;;;;;;;;;;10178821;28;20048;-75
2024/03/14 15:00:15;;;;;;;27.48;24.50;;;;;;;;;;10154695;28;20112;-77
2024/03/14 15:05:09;;;;;;;30.42;23.73;;;;;;;;;;10164733;28;20049;-77
2024/03/14 15:10:08;;;;;;;30.52;25.08;;;;;;;;;;10140517;28;20070;-77
2024/03/14 15:15:02;;;;;;;;;;;;;;;;;;10135093;28;20063;-75
2024/03/14 15:19:55;;;;;;;29.08;23.98;;;;;;;;;;10136896;28;19927;-75
2024/03/14 15:24:49;;;;;;;25.75;22.55;;;;;;;;;;10139058;28;20080;-76
2024/03/14 15:29:45;;;;;;;30.05;23.25;;;;;;;;;;10140303;28;20044;-75
2024/03/14 15:34:39;;;;;;;30.08;22.60;;;;;;;;;;10128163;28;20080;-77
2024/03/14 15:39:34;;;;;;;26.85;21.25;;;;;;;;;;10128612;28;20073;-74
2024/03/14 15:44:32;;;;;;;30.75;24.73;;;;;;;;;;10135842;28;20052;-74
2024/03/14 15:49:27;;;;;;;31.13;24.73;;;;;;;;;;10132184;28;20068;-75
2024/03/14 15:54:23;;;;;;;31.17;25.33;;;;;;;;;;10140707;28;20098;-76
2024/03/14 15:59:17;;;;;;;26.55;23.52;;;;;;;;;;10141305;28;20098;-76
2024/03/14 16:04:11;;;;;;;37.25;26.00;;;;;;;;;;10130659;28;20101;-76
2024/03/14 16:09:06;;;;;;;28.33;23.80;;;;;;;;;;10132489;28;20427;-75
2024/03/14 16:14:01;;;;;;;32.83;24.77;;;;;;;;;;10141863;28;20058;-76
2024/03/14 16:18:55;;;;;;;28.73;24.23;;;;;;;;;;10145036;28;20106;-75
2024/03/14 16:23:50;;;;;;;31.42;23.98;;;;;;;;;;10147453;28;20084;-75
2024/03/14 16:28:46;;;;;;;30.77;24.75;;;;;;;;;;10141854;28;20049;-75
2024/03/14 16:33:47;;;;;;;30.48;25.63;;;;;;;;;;10146433;28;20056;-75
2024/03/14 16:39:04;;;;;;;29.42;25.77;;;;;;;;;;10146411;28;20056;-75
2024/03/14 16:43:59;;;;;;;34.17;28.13;;;;;;;;;;10137741;28;20055;-75
2024/03/14 16:48:55;;;;;;;37.00;27.88;;;;;;;;;;10147985;28;20131;-74
2024/03/14 16:53:59;;;;;;;35.42;28.58;;;;;;;;;;10147580;28;20071;-75
2024/03/14 16:58:54;;;;;;;35.63;28.48;;;;;;;;;;10144167;28;20066;-74
2024/03/14 17:03:51;;;;;;;30.17;24.17;;;;;;;;;;10144245;28;20048;-74
2024/03/14 17:08:46;;;;;;;28.40;24.63;;;;;;;;;;10147248;28;20044;-75
2024/03/14 17:13:40;;;;;;;24.33;21.65;;;;;;;;;;10147273;28;20049;-76
2024/03/14 17:18:34;;;;;;;33.22;25.20;;;;;;;;;;10140070;28;20040;-74
2024/03/14 17:23:28;;;;;;;39.95;30.35;;;;;;;;;;10142396;28;20048;-74
2024/03/14 17:28:24;;;;;;;29.75;22.83;;;;;;;;;;10140480;28;20057;-74
2024/03/14 17:33:18;;;;;;;40.42;28.65;;;;;;;;;;10140520;28;20052;-75
2024/03/14 17:38:12;;;;;;;32.30;25.80;;;;;;;;;;10140738;28;20049;-73
2024/03/14 17:43:10;;;;;;;33.83;27.17;;;;;;;;;;10140919;28;20044;-72
2024/03/14 17:48:05;;;;;;;32.15;26.98;;;;;;;;;;10138124;28;20075;-73
2024/03/14 17:52:59;;;;;;;31.25;27.73;;;;;;;;;;10145381;28;20424;-73
2024/03/14 17:57:55;;;;;;;36.70;29.27;;;;;;;;;;10142705;28;20087;-73
2024/03/14 18:02:48;;;;;;;32.58;26.80;;;;;;;;;;10141000;28;20043;-73
2024/03/14 18:07:43;;;;;;;36.95;28.50;;;;;;;;;;10141599;28;20048;-75
2024/03/14 18:12:38;;;;;;;35.03;27.70;;;;;;;;;;10141244;28;20823;-74
2024/03/14 18:17:32;;;;;;;39.35;29.52;;;;;;;;;;10142460;28;20175;-75
2024/03/14 18:22:26;;;;;;;32.53;27.63;;;;;;;;;;10140429;28;20060;-76
2024/03/14 18:27:21;;;;;;;42.17;31.90;;;;;;;;;;10139528;28;20385;-73
2024/03/14 18:32:17;;;;;;;40.00;30.27;;;;;;;;;;10139457;28;20053;-75
2024/03/14 18:37:13;;;;;;;39.03;32.65;;;;;;;;;;10141824;28;20494;-74
2024/03/14 18:42:11;;;;;;;40.13;31.67;;;;;;;;;;10140769;28;21010;-73
2024/03/14 18:47:05;;;;;;;36.90;31.15;;;;;;;;;;10140814;28;20633;-73
2024/03/14 18:51:59;;;;;;;42.30;32.67;;;;;;;;;;10140667;28;20048;-74
2024/03/14 18:56:55;;;;;;;40.97;31.73;;;;;;;;;;10140780;28;20063;-74
2024/03/14 19:01:49;;;;;;;39.65;31.80;;;;;;;;;;10140488;28;20052;-74
2024/03/14 19:06:43;;;;;;;39.45;31.55;;;;;;;;;;10140213;28;20102;-75
2024/03/14 19:11:39;;;;;;;38.42;30.35;;;;;;;;;;10140065;28;20139;-74
2024/03/14 19:16:38;;;;;;;36.35;28.60;;;;;;;;;;10141219;28;20064;-73
2024/03/14 19:21:36;;;;;;;40.63;31.05;;;;;;;;;;10141798;28;20056;-74
2024/03/14 19:26:31;;;;;;;;;;;;;;;;;;10131816;28;20068;-74
2024/03/14 19:31:35;;;;;;;35.50;26.75;;;;;;;;;;10140085;28;20298;-74
2024/03/14 19:36:46;;;;;;;32.72;26.70;;;;;;;;;;10126894;28;20105;-75
2024/03/14 19:41:40;;;;;;;31.75;25.00;;;;;;;;;;10138882;28;20056;-74
2024/03/14 19:46:36;;;;;;;31.50;24.95;;;;;;;;;;10145678;28;20075;-76
2024/03/14 19:51:31;;;;;;;31.52;25.63;;;;;;;;;;10128929;28;20135;-75
2024/03/14 19:56:26;;;;;;;34.92;27.27;;;;;;;;;;10146160;28;20052;-76
2024/03/14 20:01:20;;;;;;;35.92;26.15;;;;;;;;;;10149668;28;20114;-74
2024/03/14 20:06:15;;;;;;;36.78;27.70;;;;;;;;;;10151802;28;20056;-76
2024/03/14 20:11:13;;;;;;;34.35;26.90;;;;;;;;;;10150288;28;20072;-76
2024/03/14 20:16:12;;;;;;;34.03;26.95;;;;;;;;;;10146417;28;20056;-75
2024/03/14 20:21:09;;;;;;;38.15;28.23;;;;;;;;;;10149690;28;20056;-76
2024/03/14 20:26:08;;;;;;;39.60;29.58;;;;;;;;;;10149099;28;20507;-75
2024/03/14 20:31:01;;;;;;;36.10;30.27;;;;;;;;;;10143328;28;20127;-77
2024/03/14 20:35:58;;;;;;;38.65;29.75;;;;;;;;;;10149597;28;20412;-76
2024/03/14 20:40:55;;;;;;;43.78;33.00;;;;;;;;;;10146380;28;20051;-76
2024/03/14 20:45:50;;;;;;;36.25;27.40;;;;;;;;;;10148435;28;20090;-76
2024/03/14 20:50:43;;;;;;;33.97;27.55;;;;;;;;;;10148079;28;20067;-76
2024/03/14 20:55:58;;;;;;;35.67;27.05;;;;;;;;;;10147079;28;20052;-77
2024/03/14 21:00:52;;;;;;;34.88;26.55;;;;;;;;;;10129847;28;20060;-77
2024/03/14 21:05:47;;;;;;;39.03;29.40;;;;;;;;;;10147759;28;20060;-77
2024/03/14 21:10:41;;;;;;;28.83;23.38;;;;;;;;;;10147764;28;20050;-75
2024/03/14 21:15:38;;;;;;;29.98;23.20;;;;;;;;;;10147396;28;20094;-76
2024/03/14 21:20:33;;;;;;;36.63;27.58;;;;;;;;;;10147391;28;20147;-76
2024/03/14 21:25:27;;;;;;;31.67;24.83;;;;;;;;;;10147521;28;20423;-77
2024/03/14 21:30:21;;;;;;;30.15;23.17;;;;;;;;;;10140327;28;20058;-75
2024/03/14 21:35:17;;;;;;;28.17;22.83;;;;;;;;;;10139119;28;20058;-75
2024/03/14 21:40:14;;;;;;;31.42;26.70;;;;;;;;;;10141213;28;20056;-75
2024/03/14 21:45:09;;;;;;;35.80;28.90;;;;;;;;;;10144719;28;20064;-75
2024/03/14 21:50:04;;;;;;;45.55;34.75;;;;;;;;;;10146515;28;20056;-77
2024/03/14 21:54:59;;;;;;;43.78;30.63;;;;;;;;;;10146206;28;20099;-75
2024/03/14 21:59:54;;;;;;;38.67;30.55;;;;;;;;;;10145599;28;20064;-75
2024/03/14 22:04:49;;;;;;;51.95;35.92;;;;;;;;;;10145872;28;20049;-75
2024/03/14 22:09:43;;;;;;;51.53;39.95;;;;;;;;;;10146002;28;20109;-75
2024/03/14 22:14:37;;;;;;;53.70;40.25;;;;;;;;;;10145849;28;20121;-75
2024/03/14 22:19:33;;;;;;;53.53;41.65;;;;;;;;;;10145524;28;20060;-75
2024/03/14 22:24:29;;;;;;;48.53;38.42;;;;;;;;;;10144708;28;20056;-75
2024/03/14 22:29:23;;;;;;;43.13;36.75;;;;;;;;;;10145004;28;20048;-75
2024/03/14 22:34:18;;;;;;;50.10;38.65;;;;;;;;;;10144982;28;20064;-74
2024/03/14 22:39:14;;;;;;;44.90;36.55;;;;;;;;;;10144487;28;20075;-75
2024/03/14 22:44:10;;;;;;;41.25;33.65;;;;;;;;;;10144337;28;20454;-75
2024/03/14 22:49:07;;;;;;;44.35;36.65;;;;;;;;;;10131460;28;20051;-75
2024/03/14 22:54:03;;;;;;;42.13;33.50;;;;;;;;;;10144550;28;20389;-76
2024/03/14 22:58:58;;;;;;;45.60;35.38;;;;;;;;;;10143981;28;20044;-74
2024/03/14 23:03:52;;;;;;;43.92;37.63;;;;;;;;;;10142781;28;20512;-75
2024/03/14 23:08:48;;;;;;;46.33;38.70;;;;;;;;;;10143103;28;20131;-75
2024/03/14 23:13:42;;;;;;;48.17;36.80;;;;;;;;;;10140633;28;20041;-74
2024/03/14 23:18:38;;;;;;;46.95;38.78;;;;;;;;;;10118172;28;20071;-74
2024/03/14 23:23:33;;;;;;;45.63;36.47;;;;;;;;;;10145601;28;20720;-75
2024/03/14 23:28:28;;;;;;;49.53;39.45;;;;;;;;;;10146092;28;20049;-77
2024/03/14 23:33:22;;;;;;;41.78;36.20;;;;;;;;;;10127540;28;20105;-75
2024/03/14 23:38:16;;;;;;;54.53;39.90;;;;;;;;;;10147784;28;20056;-75
2024/03/14 23:43:13;;;;;;;44.58;37.13;;;;;;;;;;10147140;28;20117;-75
2024/03/14 23:48:08;;;;;;;47.53;36.80;;;;;;;;;;10147763;28;20080;-76
2024/03/14 23:53:04;;;;;;;46.15;37.50;;;;;;;;;;10148021;28;20397;-75
2024/03/14 23:57:59;;;;;;;56.47;38.10;;;;;;;;;;10147970;28;20048;-74
